sensor_id;sensor_type;location;lat;lon;timestamp;temperature;humidity
5059;DHT22;2548;52.050;11.036;2023-03-01T00:01:01;-2.50;99.90
5059;DHT22;2548;52.050;11.036;2023-03-01T00:03:29;-2.60;99.90
5059;DHT22;2548;52.050;11.036;2023-03-01T00:05:56;-2.70;99.90
5059;DHT22;2548;52.050;11.036;2023-03-01T00:08:26;-2.70;99.90
5059;DHT22;2548;52.050;11.036;2023-03-01T00:11:01;-2.80;99.90
5059;DHT22;2548;52.050;11.036;2023-03-01T00:13:29;-2.90;99.90
5059;DHT22;2548;52.050;11.036;2023-03-01T00:15:56;-2.90;99.90
5059;DHT22;2548;52.050;11.036;2023-03-01T00:18:23;-2.90;99.90
5059;DHT22;2548;52.050;11.036;2023-03-01T00:20:51;-3.00;99.90
5059;DHT22;2548;52.050;11.036;2023-03-01T00:23:19;-3.00;99.90
5059;DHT22;2548;52.050;11.036;2023-03-01T00:25:48;-3.20;99.90
5059;DHT22;2548;52.050;11.036;2023-03-01T00:28:16;-3.20;99.90
5059;DHT22;2548;52.050;11.036;2023-03-01T00:30:43;-3.30;99.90
5059;DHT22;2548;52.050;11.036;2023-03-01T00:33:11;-3.30;99.90
5059;DHT22;2548;52.050;11.036;2023-03-01T00:35:38;-3.30;99.90
5059;DHT22;2548;52.050;11.036;2023-03-01T00:38:06;-3.30;99.90
5059;DHT22;2548;52.050;11.036;2023-03-01T00:40:35;-3.40;99.90
5059;DHT22;2548;52.050;11.036;2023-03-01T00:43:04;-3.40;99.90
5059;DHT22;2548;52.050;11.036;2023-03-01T00:45:32;-3.50;99.90
5059;DHT22;2548;52.050;11.036;2023-03-01T00:48:00;-3.40;99.90
5059;DHT22;2548;52.050;11.036;2023-03-01T00:50:28;-3.40;99.90
5059;DHT22;2548;52.050;11.036;2023-03-01T00:52:56;-3.40;99.90
5059;DHT22;2548;52.050;11.036;2023-03-01T00:55:24;-3.40;99.90
5059;DHT22;2548;52.050;11.036;2023-03-01T00:57:51;-3.40;99.90
5059;DHT22;2548;52.050;11.036;2023-03-01T01:00:21;-3.40;99.90
5059;DHT22;2548;52.050;11.036;2023-03-01T01:02:49;-3.30;99.90
5059;DHT22;2548;52.050;11.036;2023-03-01T01:05:16;-3.20;99.90
5059;DHT22;2548;52.050;11.036;2023-03-01T01:07:47;-3.20;99.90
5059;DHT22;2548;52.050;11.036;2023-03-01T01:10:15;-3.20;99.90
5059;DHT22;2548;52.050;11.036;2023-03-01T01:12:44;-3.10;99.90
5059;DHT22;2548;52.050;11.036;2023-03-01T01:15:12;-3.10;99.90
5059;DHT22;2548;52.050;11.036;2023-03-01T01:17:43;-3.10;99.90
5059;DHT22;2548;52.050;11.036;2023-03-01T01:20:12;-3.20;99.90
5059;DHT22;2548;52.050;11.036;2023-03-01T01:22:39;-3.20;99.90
5059;DHT22;2548;52.050;11.036;2023-03-01T01:25:07;-3.20;99.90
5059;DHT22;2548;52.050;11.036;2023-03-01T01:27:35;-3.10;99.90
5059;DHT22;2548;52.050;11.036;2023-03-01T01:30:03;-3.10;99.90
5059;DHT22;2548;52.050;11.036;2023-03-01T01:32:31;-3.10;99.90
5059;DHT22;2548;52.050;11.036;2023-03-01T01:35:00;-3.20;99.90
5059;DHT22;2548;52.050;11.036;2023-03-01T01:37:27;-3.30;99.90
5059;DHT22;2548;52.050;11.036;2023-03-01T01:39:58;-3.40;99.90
5059;DHT22;2548;52.050;11.036;2023-03-01T01:42:26;-3.50;99.90
5059;DHT22;2548;52.050;11.036;2023-03-01T01:45:25;-3.60;99.90
5059;DHT22;2548;52.050;11.036;2023-03-01T01:47:54;-3.70;99.90
5059;DHT22;2548;52.050;11.036;2023-03-01T01:50:25;-3.70;99.90
5059;DHT22;2548;52.050;11.036;2023-03-01T01:52:53;-3.80;99.90
5059;DHT22;2548;52.050;11.036;2023-03-01T01:55:25;-3.90;99.90
5059;DHT22;2548;52.050;11.036;2023-03-01T01:57:58;-4.00;99.90
5059;DHT22;2548;52.050;11.036;2023-03-01T02:00:28;-4.10;99.90
5059;DHT22;2548;52.050;11.036;2023-03-01T02:02:59;-4.10;99.90
5059;DHT22;2548;52.050;11.036;2023-03-01T02:05:34;-4.20;99.90
5059;DHT22;2548;52.050;11.036;2023-03-01T02:08:04;-4.20;99.90
5059;DHT22;2548;52.050;11.036;2023-03-01T02:10:32;-4.20;99.90
5059;DHT22;2548;52.050;11.036;2023-03-01T02:13:02;-4.20;99.90
5059;DHT22;2548;52.050;11.036;2023-03-01T02:15:32;-4.20;99.90
5059;DHT22;2548;52.050;11.036;2023-03-01T02:18:01;-4.30;99.90
5059;DHT22;2548;52.050;11.036;2023-03-01T02:20:35;-4.30;99.90
5059;DHT22;2548;52.050;11.036;2023-03-01T02:23:07;-4.20;99.90
5059;DHT22;2548;52.050;11.036;2023-03-01T02:25:40;-4.20;99.90
5059;DHT22;2548;52.050;11.036;2023-03-01T02:28:22;-4.30;99.90
5059;DHT22;2548;52.050;11.036;2023-03-01T02:30:51;-4.30;99.90
5059;DHT22;2548;52.050;11.036;2023-03-01T02:33:38;-4.30;99.90
5059;DHT22;2548;52.050;11.036;2023-03-01T02:36:09;-4.30;99.90
5059;DHT22;2548;52.050;11.036;2023-03-01T02:38:40;-4.40;99.90
5059;DHT22;2548;52.050;11.036;2023-03-01T02:41:08;-4.30;99.90
5059;DHT22;2548;52.050;11.036;2023-03-01T02:43:40;-4.30;99.90
5059;DHT22;2548;52.050;11.036;2023-03-01T02:46:14;-4.10;99.90
5059;DHT22;2548;52.050;11.036;2023-03-01T02:48:44;-3.90;99.90
5059;DHT22;2548;52.050;11.036;2023-03-01T02:51:22;-3.90;99.90
5059;DHT22;2548;52.050;11.036;2023-03-01T02:53:58;-3.90;99.90
5059;DHT22;2548;52.050;11.036;2023-03-01T02:56:29;-3.90;99.90
5059;DHT22;2548;52.050;11.036;2023-03-01T02:58:58;-3.90;99.90
5059;DHT22;2548;52.050;11.036;2023-03-01T03:01:29;-3.90;99.90
5059;DHT22;2548;52.050;11.036;2023-03-01T03:04:04;-3.90;99.90
5059;DHT22;2548;52.050;11.036;2023-03-01T03:06:32;-4.00;99.90
5059;DHT22;2548;52.050;11.036;2023-03-01T03:09:01;-4.00;99.90
5059;DHT22;2548;52.050;11.036;2023-03-01T03:11:28;-4.00;99.90
5059;DHT22;2548;52.050;11.036;2023-03-01T03:13:58;-4.10;99.90
5059;DHT22;2548;52.050;11.036;2023-03-01T03:16:25;-4.20;99.90
5059;DHT22;2548;52.050;11.036;2023-03-01T03:18:53;-4.20;99.90
5059;DHT22;2548;52.050;11.036;2023-03-01T03:21:20;-4.30;99.90
5059;DHT22;2548;52.050;11.036;2023-03-01T03:23:48;-4.30;99.90
5059;DHT22;2548;52.050;11.036;2023-03-01T03:26:15;-4.30;99.90
5059;DHT22;2548;52.050;11.036;2023-03-01T03:28:42;-4.40;99.90
5059;DHT22;2548;52.050;11.036;2023-03-01T03:31:11;-4.50;99.90
5059;DHT22;2548;52.050;11.036;2023-03-01T03:33:39;-4.60;99.90
5059;DHT22;2548;52.050;11.036;2023-03-01T03:36:07;-4.60;99.90
5059;DHT22;2548;52.050;11.036;2023-03-01T03:38:39;-4.70;99.90
5059;DHT22;2548;52.050;11.036;2023-03-01T03:41:08;-4.80;99.90
5059;DHT22;2548;52.050;11.036;2023-03-01T03:43:37;-4.90;99.90
5059;DHT22;2548;52.050;11.036;2023-03-01T03:46:05;-4.90;99.90
5059;DHT22;2548;52.050;11.036;2023-03-01T03:48:35;-5.00;99.90
5059;DHT22;2548;52.050;11.036;2023-03-01T03:51:03;-5.00;99.90
5059;DHT22;2548;52.050;11.036;2023-03-01T03:53:32;-5.00;99.90
5059;DHT22;2548;52.050;11.036;2023-03-01T03:55:59;-5.10;99.90
5059;DHT22;2548;52.050;11.036;2023-03-01T03:58:27;-5.00;99.90
5059;DHT22;2548;52.050;11.036;2023-03-01T04:00:56;-5.00;99.90
5059;DHT22;2548;52.050;11.036;2023-03-01T04:03:25;-5.10;99.90
5059;DHT22;2548;52.050;11.036;2023-03-01T04:05:54;-5.00;99.90
5059;DHT22;2548;52.050;11.036;2023-03-01T04:08:24;-5.00;99.90
5059;DHT22;2548;52.050;11.036;2023-03-01T04:10:56;-5.00;99.90
5059;DHT22;2548;52.050;11.036;2023-03-01T04:13:24;-4.90;99.90
5059;DHT22;2548;52.050;11.036;2023-03-01T04:15:52;-4.80;99.90
5059;DHT22;2548;52.050;11.036;2023-03-01T04:18:22;-4.70;99.90
5059;DHT22;2548;52.050;11.036;2023-03-01T04:20:49;-4.60;99.90
5059;DHT22;2548;52.050;11.036;2023-03-01T04:23:20;-4.50;99.90
5059;DHT22;2548;52.050;11.036;2023-03-01T04:25:49;-4.50;99.90
5059;DHT22;2548;52.050;11.036;2023-03-01T04:28:20;-4.60;99.90
5059;DHT22;2548;52.050;11.036;2023-03-01T04:30:47;-4.70;99.90
5059;DHT22;2548;52.050;11.036;2023-03-01T04:33:15;-4.80;99.90
5059;DHT22;2548;52.050;11.036;2023-03-01T04:35:42;-4.90;99.90
5059;DHT22;2548;52.050;11.036;2023-03-01T04:38:10;-4.90;99.90
5059;DHT22;2548;52.050;11.036;2023-03-01T04:40:39;-5.00;99.90
5059;DHT22;2548;52.050;11.036;2023-03-01T04:43:09;-5.00;99.90
5059;DHT22;2548;52.050;11.036;2023-03-01T04:45:36;-5.00;99.90
5059;DHT22;2548;52.050;11.036;2023-03-01T04:48:04;-5.00;99.90
5059;DHT22;2548;52.050;11.036;2023-03-01T04:50:32;-5.00;99.90
5059;DHT22;2548;52.050;11.036;2023-03-01T04:53:00;-5.00;99.90
5059;DHT22;2548;52.050;11.036;2023-03-01T04:55:27;-5.00;99.90
5059;DHT22;2548;52.050;11.036;2023-03-01T04:57:56;-5.00;99.90
5059;DHT22;2548;52.050;11.036;2023-03-01T05:00:24;-5.00;99.90
5059;DHT22;2548;52.050;11.036;2023-03-01T05:02:53;-5.00;99.90
5059;DHT22;2548;52.050;11.036;2023-03-01T05:05:24;-5.00;99.90
5059;DHT22;2548;52.050;11.036;2023-03-01T05:07:53;-5.00;99.90
5059;DHT22;2548;52.050;11.036;2023-03-01T05:10:21;-5.10;99.90
5059;DHT22;2548;52.050;11.036;2023-03-01T05:12:48;-5.10;99.90
5059;DHT22;2548;52.050;11.036;2023-03-01T05:15:17;-5.10;99.90
5059;DHT22;2548;52.050;11.036;2023-03-01T05:17:45;-5.10;99.90
5059;DHT22;2548;52.050;11.036;2023-03-01T05:20:13;-5.10;99.90
5059;DHT22;2548;52.050;11.036;2023-03-01T05:22:40;-5.10;99.90
5059;DHT22;2548;52.050;11.036;2023-03-01T05:25:08;-5.10;99.90
5059;DHT22;2548;52.050;11.036;2023-03-01T05:27:36;-5.10;99.90
5059;DHT22;2548;52.050;11.036;2023-03-01T05:30:04;-5.20;99.90
5059;DHT22;2548;52.050;11.036;2023-03-01T05:32:42;-5.20;99.90
5059;DHT22;2548;52.050;11.036;2023-03-01T05:35:11;-5.20;99.90
5059;DHT22;2548;52.050;11.036;2023-03-01T05:37:41;-5.20;99.90
5059;DHT22;2548;52.050;11.036;2023-03-01T05:40:11;-5.30;99.90
5059;DHT22;2548;52.050;11.036;2023-03-01T05:42:43;-5.20;99.90
5059;DHT22;2548;52.050;11.036;2023-03-01T05:45:11;-5.20;99.90
5059;DHT22;2548;52.050;11.036;2023-03-01T05:47:42;-5.10;99.90
5059;DHT22;2548;52.050;11.036;2023-03-01T05:50:12;-5.00;99.90
5059;DHT22;2548;52.050;11.036;2023-03-01T05:52:40;-5.00;99.90
5059;DHT22;2548;52.050;11.036;2023-03-01T05:55:08;-5.00;99.90
5059;DHT22;2548;52.050;11.036;2023-03-01T05:57:35;-5.10;99.90
5059;DHT22;2548;52.050;11.036;2023-03-01T06:00:03;-5.10;99.90
5059;DHT22;2548;52.050;11.036;2023-03-01T06:02:38;-5.10;99.90
5059;DHT22;2548;52.050;11.036;2023-03-01T06:05:09;-5.10;99.90
5059;DHT22;2548;52.050;11.036;2023-03-01T06:07:37;-5.20;99.90
5059;DHT22;2548;52.050;11.036;2023-03-01T06:10:06;-5.10;99.90
5059;DHT22;2548;52.050;11.036;2023-03-01T06:12:35;-5.10;99.90
5059;DHT22;2548;52.050;11.036;2023-03-01T06:15:04;-5.00;99.90
5059;DHT22;2548;52.050;11.036;2023-03-01T06:17:33;-5.00;99.90
5059;DHT22;2548;52.050;11.036;2023-03-01T06:20:04;-4.90;99.90
5059;DHT22;2548;52.050;11.036;2023-03-01T06:22:33;-4.90;99.90
5059;DHT22;2548;52.050;11.036;2023-03-01T06:25:01;-4.90;99.90
5059;DHT22;2548;52.050;11.036;2023-03-01T06:27:28;-4.90;99.90
5059;DHT22;2548;52.050;11.036;2023-03-01T06:29:56;-4.90;99.90
5059;DHT22;2548;52.050;11.036;2023-03-01T06:32:23;-5.00;99.90
5059;DHT22;2548;52.050;11.036;2023-03-01T06:34:51;-4.90;99.90
5059;DHT22;2548;52.050;11.036;2023-03-01T06:37:18;-5.00;99.90
5059;DHT22;2548;52.050;11.036;2023-03-01T06:39:47;-5.00;99.90
5059;DHT22;2548;52.050;11.036;2023-03-01T06:42:15;-5.10;99.90
5059;DHT22;2548;52.050;11.036;2023-03-01T06:44:43;-5.10;99.90
5059;DHT22;2548;52.050;11.036;2023-03-01T06:47:12;-5.10;99.90
5059;DHT22;2548;52.050;11.036;2023-03-01T06:49:39;-5.00;99.90
5059;DHT22;2548;52.050;11.036;2023-03-01T06:52:06;-5.00;99.90
5059;DHT22;2548;52.050;11.036;2023-03-01T06:54:34;-5.00;99.90
5059;DHT22;2548;52.050;11.036;2023-03-01T06:57:03;-4.90;99.90
5059;DHT22;2548;52.050;11.036;2023-03-01T06:59:30;-4.90;99.90
5059;DHT22;2548;52.050;11.036;2023-03-01T07:01:58;-4.80;99.90
5059;DHT22;2548;52.050;11.036;2023-03-01T07:04:25;-4.80;99.90
5059;DHT22;2548;52.050;11.036;2023-03-01T07:06:54;-4.70;99.90
5059;DHT22;2548;52.050;11.036;2023-03-01T07:09:22;-4.70;99.90
5059;DHT22;2548;52.050;11.036;2023-03-01T07:11:50;-4.60;99.90
5059;DHT22;2548;52.050;11.036;2023-03-01T07:14:19;-4.50;99.90
5059;DHT22;2548;52.050;11.036;2023-03-01T07:16:46;-4.30;99.90
5059;DHT22;2548;52.050;11.036;2023-03-01T07:19:14;-4.20;99.90
5059;DHT22;2548;52.050;11.036;2023-03-01T07:21:41;-4.00;99.90
5059;DHT22;2548;52.050;11.036;2023-03-01T07:24:09;-3.90;99.90
5059;DHT22;2548;52.050;11.036;2023-03-01T07:26:37;-3.80;99.90
5059;DHT22;2548;52.050;11.036;2023-03-01T07:29:06;-3.70;99.90
5059;DHT22;2548;52.050;11.036;2023-03-01T07:31:35;-3.60;99.90
5059;DHT22;2548;52.050;11.036;2023-03-01T07:34:03;-3.50;99.90
5059;DHT22;2548;52.050;11.036;2023-03-01T07:36:31;-3.40;99.90
5059;DHT22;2548;52.050;11.036;2023-03-01T07:38:59;-3.30;99.90
5059;DHT22;2548;52.050;11.036;2023-03-01T07:41:28;-3.20;99.90
5059;DHT22;2548;52.050;11.036;2023-03-01T07:43:56;-3.10;99.90
5059;DHT22;2548;52.050;11.036;2023-03-01T07:46:23;-3.00;99.90
5059;DHT22;2548;52.050;11.036;2023-03-01T07:48:52;-2.80;99.90
5059;DHT22;2548;52.050;11.036;2023-03-01T07:51:19;-2.70;99.90
5059;DHT22;2548;52.050;11.036;2023-03-01T07:53:47;-2.60;99.90
5059;DHT22;2548;52.050;11.036;2023-03-01T07:56:16;-2.50;99.90
5059;DHT22;2548;52.050;11.036;2023-03-01T07:58:45;-2.40;99.90
5059;DHT22;2548;52.050;11.036;2023-03-01T08:01:14;-2.30;99.90
5059;DHT22;2548;52.050;11.036;2023-03-01T08:03:41;-2.20;99.90
5059;DHT22;2548;52.050;11.036;2023-03-01T08:06:12;-2.10;99.90
5059;DHT22;2548;52.050;11.036;2023-03-01T08:08:40;-2.00;99.90
5059;DHT22;2548;52.050;11.036;2023-03-01T08:11:10;-1.90;99.90
5059;DHT22;2548;52.050;11.036;2023-03-01T08:13:38;-1.80;99.90
5059;DHT22;2548;52.050;11.036;2023-03-01T08:16:08;-1.70;99.90
5059;DHT22;2548;52.050;11.036;2023-03-01T08:18:35;-1.60;99.90
5059;DHT22;2548;52.050;11.036;2023-03-01T08:21:04;-1.50;99.90
5059;DHT22;2548;52.050;11.036;2023-03-01T08:23:33;-1.40;99.90
5059;DHT22;2548;52.050;11.036;2023-03-01T08:26:06;-1.30;99.90
5059;DHT22;2548;52.050;11.036;2023-03-01T08:28:33;-1.10;99.90
5059;DHT22;2548;52.050;11.036;2023-03-01T08:31:01;-1.00;99.90
5059;DHT22;2548;52.050;11.036;2023-03-01T08:33:29;-0.90;99.90
5059;DHT22;2548;52.050;11.036;2023-03-01T08:36:04;-0.80;99.90
5059;DHT22;2548;52.050;11.036;2023-03-01T08:38:34;-0.60;99.90
5059;DHT22;2548;52.050;11.036;2023-03-01T08:41:03;-0.50;99.90
5059;DHT22;2548;52.050;11.036;2023-03-01T08:43:31;-0.40;99.90
5059;DHT22;2548;52.050;11.036;2023-03-01T08:45:58;-0.30;99.90
5059;DHT22;2548;52.050;11.036;2023-03-01T08:48:27;-0.20;99.90
5059;DHT22;2548;52.050;11.036;2023-03-01T08:50:55;0.00;99.90
5059;DHT22;2548;52.050;11.036;2023-03-01T08:53:23;0.10;99.90
5059;DHT22;2548;52.050;11.036;2023-03-01T08:55:52;0.30;99.90
5059;DHT22;2548;52.050;11.036;2023-03-01T08:58:19;0.40;99.90
5059;DHT22;2548;52.050;11.036;2023-03-01T09:00:46;0.50;99.90
5059;DHT22;2548;52.050;11.036;2023-03-01T09:03:14;0.60;99.90
5059;DHT22;2548;52.050;11.036;2023-03-01T09:05:41;0.70;99.90
5059;DHT22;2548;52.050;11.036;2023-03-01T09:08:11;0.90;99.90
5059;DHT22;2548;52.050;11.036;2023-03-01T09:10:39;1.00;99.90
5059;DHT22;2548;52.050;11.036;2023-03-01T09:13:08;1.10;99.90
5059;DHT22;2548;52.050;11.036;2023-03-01T09:15:36;1.20;99.90
5059;DHT22;2548;52.050;11.036;2023-03-01T09:18:04;1.30;99.90
5059;DHT22;2548;52.050;11.036;2023-03-01T09:20:32;1.40;99.90
5059;DHT22;2548;52.050;11.036;2023-03-01T09:23:00;1.50;99.90
5059;DHT22;2548;52.050;11.036;2023-03-01T09:25:27;1.70;99.90
5059;DHT22;2548;52.050;11.036;2023-03-01T09:27:55;1.70;99.90
5059;DHT22;2548;52.050;11.036;2023-03-01T09:30:24;1.80;99.90
5059;DHT22;2548;52.050;11.036;2023-03-01T09:32:51;2.00;99.90
5059;DHT22;2548;52.050;11.036;2023-03-01T09:35:19;2.10;99.90
5059;DHT22;2548;52.050;11.036;2023-03-01T09:37:48;2.20;99.90
5059;DHT22;2548;52.050;11.036;2023-03-01T09:40:18;2.30;99.90
5059;DHT22;2548;52.050;11.036;2023-03-01T09:42:51;2.40;99.90
5059;DHT22;2548;52.050;11.036;2023-03-01T09:45:27;2.40;99.90
5059;DHT22;2548;52.050;11.036;2023-03-01T09:47:56;2.50;99.90
5059;DHT22;2548;52.050;11.036;2023-03-01T09:50:34;2.60;99.90
5059;DHT22;2548;52.050;11.036;2023-03-01T09:53:04;2.60;99.90
5059;DHT22;2548;52.050;11.036;2023-03-01T09:55:37;2.60;99.90
5059;DHT22;2548;52.050;11.036;2023-03-01T09:58:25;2.70;99.90
5059;DHT22;2548;52.050;11.036;2023-03-01T10:00:57;2.80;99.90
5059;DHT22;2548;52.050;11.036;2023-03-01T10:03:30;3.00;99.90
5059;DHT22;2548;52.050;11.036;2023-03-01T10:06:04;3.10;99.90
5059;DHT22;2548;52.050;11.036;2023-03-01T10:08:38;3.20;99.90
5059;DHT22;2548;52.050;11.036;2023-03-01T10:11:19;3.20;99.90
5059;DHT22;2548;52.050;11.036;2023-03-01T10:13:52;3.20;99.90
5059;DHT22;2548;52.050;11.036;2023-03-01T10:16:27;3.30;99.90
5059;DHT22;2548;52.050;11.036;2023-03-01T10:18:59;3.40;99.90
5059;DHT22;2548;52.050;11.036;2023-03-01T10:21:28;3.50;99.90
5059;DHT22;2548;52.050;11.036;2023-03-01T10:24:02;3.60;99.90
5059;DHT22;2548;52.050;11.036;2023-03-01T10:26:44;3.60;99.90
5059;DHT22;2548;52.050;11.036;2023-03-01T10:29:14;3.70;99.90
5059;DHT22;2548;52.050;11.036;2023-03-01T10:31:45;3.70;99.90
5059;DHT22;2548;52.050;11.036;2023-03-01T10:34:15;3.80;99.90
5059;DHT22;2548;52.050;11.036;2023-03-01T10:36:46;3.90;99.90
5059;DHT22;2548;52.050;11.036;2023-03-01T10:39:16;3.90;99.90
5059;DHT22;2548;52.050;11.036;2023-03-01T10:41:57;3.90;99.90
5059;DHT22;2548;52.050;11.036;2023-03-01T10:44:43;4.10;99.90
5059;DHT22;2548;52.050;11.036;2023-03-01T10:47:19;4.30;99.90
5059;DHT22;2548;52.050;11.036;2023-03-01T10:49:59;4.40;99.90
5059;DHT22;2548;52.050;11.036;2023-03-01T10:52:32;4.50;99.90
5059;DHT22;2548;52.050;11.036;2023-03-01T10:55:03;4.50;99.90
5059;DHT22;2548;52.050;11.036;2023-03-01T10:57:34;4.60;99.90
5059;DHT22;2548;52.050;11.036;2023-03-01T11:00:19;4.70;99.90
5059;DHT22;2548;52.050;11.036;2023-03-01T11:03:01;4.80;99.90
5059;DHT22;2548;52.050;11.036;2023-03-01T11:05:29;4.70;99.90
5059;DHT22;2548;52.050;11.036;2023-03-01T11:08:00;4.80;99.90
5059;DHT22;2548;52.050;11.036;2023-03-01T11:10:30;4.80;99.90
5059;DHT22;2548;52.050;11.036;2023-03-01T11:13:09;4.90;99.90
5059;DHT22;2548;52.050;11.036;2023-03-01T11:15:41;5.00;99.90
5059;DHT22;2548;52.050;11.036;2023-03-01T11:18:21;5.10;99.90
5059;DHT22;2548;52.050;11.036;2023-03-01T11:20:49;5.20;99.90
5059;DHT22;2548;52.050;11.036;2023-03-01T11:23:18;5.10;99.90
5059;DHT22;2548;52.050;11.036;2023-03-01T11:25:51;5.30;99.90
5059;DHT22;2548;52.050;11.036;2023-03-01T11:28:21;5.40;99.90
5059;DHT22;2548;52.050;11.036;2023-03-01T11:30:53;5.40;99.90
5059;DHT22;2548;52.050;11.036;2023-03-01T11:33:33;5.50;99.90
5059;DHT22;2548;52.050;11.036;2023-03-01T11:36:05;5.50;99.90
5059;DHT22;2548;52.050;11.036;2023-03-01T11:38:35;5.50;99.90
5059;DHT22;2548;52.050;11.036;2023-03-01T11:41:08;5.50;99.90
5059;DHT22;2548;52.050;11.036;2023-03-01T11:43:41;5.60;99.90
5059;DHT22;2548;52.050;11.036;2023-03-01T11:46:41;5.70;99.90
5059;DHT22;2548;52.050;11.036;2023-03-01T11:52:31;5.90;99.90
5059;DHT22;2548;52.050;11.036;2023-03-01T11:55:16;5.90;99.90
5059;DHT22;2548;52.050;11.036;2023-03-01T11:57:58;6.00;99.90
5059;DHT22;2548;52.050;11.036;2023-03-01T12:00:47;6.00;99.90
5059;DHT22;2548;52.050;11.036;2023-03-01T12:03:27;6.00;99.90
5059;DHT22;2548;52.050;11.036;2023-03-01T12:06:23;6.00;99.90
5059;DHT22;2548;52.050;11.036;2023-03-01T12:09:04;6.00;99.90
5059;DHT22;2548;52.050;11.036;2023-03-01T12:11:43;6.10;99.90
5059;DHT22;2548;52.050;11.036;2023-03-01T12:14:44;6.10;99.90
5059;DHT22;2548;52.050;11.036;2023-03-01T12:17:47;6.10;99.90
5059;DHT22;2548;52.050;11.036;2023-03-01T12:20:28;6.10;99.90
5059;DHT22;2548;52.050;11.036;2023-03-01T12:23:10;6.20;99.90
5059;DHT22;2548;52.050;11.036;2023-03-01T12:25:48;6.30;99.90
5059;DHT22;2548;52.050;11.036;2023-03-01T12:28:38;6.40;99.90
5059;DHT22;2548;52.050;11.036;2023-03-01T12:31:18;6.30;99.90
5059;DHT22;2548;52.050;11.036;2023-03-01T12:33:54;6.30;99.90
5059;DHT22;2548;52.050;11.036;2023-03-01T12:36:36;6.40;99.90
5059;DHT22;2548;52.050;11.036;2023-03-01T12:39:24;6.30;99.90
5059;DHT22;2548;52.050;11.036;2023-03-01T12:42:01;6.30;99.90
5059;DHT22;2548;52.050;11.036;2023-03-01T12:44:42;6.40;99.90
5059;DHT22;2548;52.050;11.036;2023-03-01T12:47:24;6.50;99.90
5059;DHT22;2548;52.050;11.036;2023-03-01T12:49:55;6.60;99.90
5059;DHT22;2548;52.050;11.036;2023-03-01T12:52:30;6.50;99.90
5059;DHT22;2548;52.050;11.036;2023-03-01T12:55:01;6.40;99.90
5059;DHT22;2548;52.050;11.036;2023-03-01T12:57:34;6.40;99.90
5059;DHT22;2548;52.050;11.036;2023-03-01T13:00:17;6.40;99.90
5059;DHT22;2548;52.050;11.036;2023-03-01T13:02:53;6.40;99.90
5059;DHT22;2548;52.050;11.036;2023-03-01T13:05:34;6.40;99.90
5059;DHT22;2548;52.050;11.036;2023-03-01T13:08:10;6.40;99.90
5059;DHT22;2548;52.050;11.036;2023-03-01T13:10:43;6.50;99.90
5059;DHT22;2548;52.050;11.036;2023-03-01T13:13:19;6.60;99.90
5059;DHT22;2548;52.050;11.036;2023-03-01T13:15:48;6.60;99.90
5059;DHT22;2548;52.050;11.036;2023-03-01T13:18:29;6.50;99.90
5059;DHT22;2548;52.050;11.036;2023-03-01T13:20:59;6.50;99.90
5059;DHT22;2548;52.050;11.036;2023-03-01T13:23:30;6.50;99.90
5059;DHT22;2548;52.050;11.036;2023-03-01T13:26:10;6.50;99.90
5059;DHT22;2548;52.050;11.036;2023-03-01T13:28:48;6.60;99.90
5059;DHT22;2548;52.050;11.036;2023-03-01T13:34:45;6.60;99.90
5059;DHT22;2548;52.050;11.036;2023-03-01T13:37:33;6.70;99.90
5059;DHT22;2548;52.050;11.036;2023-03-01T13:42:46;6.80;99.90
5059;DHT22;2548;52.050;11.036;2023-03-01T13:45:32;6.80;99.90
5059;DHT22;2548;52.050;11.036;2023-03-01T13:48:03;6.80;99.90
5059;DHT22;2548;52.050;11.036;2023-03-01T13:50:42;6.80;99.90
5059;DHT22;2548;52.050;11.036;2023-03-01T13:53:14;6.80;99.90
5059;DHT22;2548;52.050;11.036;2023-03-01T13:55:44;6.80;99.90
5059;DHT22;2548;52.050;11.036;2023-03-01T13:58:20;6.80;99.90
5059;DHT22;2548;52.050;11.036;2023-03-01T14:00:58;6.80;99.90
5059;DHT22;2548;52.050;11.036;2023-03-01T14:03:26;6.90;99.90
5059;DHT22;2548;52.050;11.036;2023-03-01T14:06:01;6.90;99.90
5059;DHT22;2548;52.050;11.036;2023-03-01T14:08:30;6.90;99.90
5059;DHT22;2548;52.050;11.036;2023-03-01T14:14:10;6.80;99.90
5059;DHT22;2548;52.050;11.036;2023-03-01T14:16:52;6.80;99.90
5059;DHT22;2548;52.050;11.036;2023-03-01T14:19:24;6.80;99.90
5059;DHT22;2548;52.050;11.036;2023-03-01T14:22:00;6.90;99.90
5059;DHT22;2548;52.050;11.036;2023-03-01T14:24:31;6.90;99.90
5059;DHT22;2548;52.050;11.036;2023-03-01T14:27:00;6.90;99.90
5059;DHT22;2548;52.050;11.036;2023-03-01T14:29:35;6.90;99.90
5059;DHT22;2548;52.050;11.036;2023-03-01T14:32:20;6.90;99.90
5059;DHT22;2548;52.050;11.036;2023-03-01T14:34:49;6.80;99.90
5059;DHT22;2548;52.050;11.036;2023-03-01T14:37:20;6.80;99.90
5059;DHT22;2548;52.050;11.036;2023-03-01T14:39:49;6.90;99.90
5059;DHT22;2548;52.050;11.036;2023-03-01T14:42:16;6.90;99.90
5059;DHT22;2548;52.050;11.036;2023-03-01T14:44:47;6.90;99.90
5059;DHT22;2548;52.050;11.036;2023-03-01T14:47:25;6.80;99.90
5059;DHT22;2548;52.050;11.036;2023-03-01T14:49:57;6.80;99.90
5059;DHT22;2548;52.050;11.036;2023-03-01T14:52:32;6.80;99.90
5059;DHT22;2548;52.050;11.036;2023-03-01T14:55:04;6.80;99.90
5059;DHT22;2548;52.050;11.036;2023-03-01T14:57:32;6.80;99.90
5059;DHT22;2548;52.050;11.036;2023-03-01T15:00:02;6.80;99.90
5059;DHT22;2548;52.050;11.036;2023-03-01T15:02:33;6.80;99.90
5059;DHT22;2548;52.050;11.036;2023-03-01T15:05:03;6.70;99.90
5059;DHT22;2548;52.050;11.036;2023-03-01T15:07:36;6.60;99.90
5059;DHT22;2548;52.050;11.036;2023-03-01T15:10:11;6.60;99.90
5059;DHT22;2548;52.050;11.036;2023-03-01T15:12:42;6.60;99.90
5059;DHT22;2548;52.050;11.036;2023-03-01T15:15:30;6.60;99.90
5059;DHT22;2548;52.050;11.036;2023-03-01T15:18:01;6.50;99.90
5059;DHT22;2548;52.050;11.036;2023-03-01T15:20:30;6.40;99.90
5059;DHT22;2548;52.050;11.036;2023-03-01T15:23:01;6.50;99.90
5059;DHT22;2548;52.050;11.036;2023-03-01T15:25:31;6.40;99.90
5059;DHT22;2548;52.050;11.036;2023-03-01T15:28:01;6.40;99.90
5059;DHT22;2548;52.050;11.036;2023-03-01T15:33:25;6.40;99.90
5059;DHT22;2548;52.050;11.036;2023-03-01T15:35:55;6.40;99.90
5059;DHT22;2548;52.050;11.036;2023-03-01T15:38:29;6.40;99.90
5059;DHT22;2548;52.050;11.036;2023-03-01T15:40:59;6.30;99.90
5059;DHT22;2548;52.050;11.036;2023-03-01T15:43:44;6.30;99.90
5059;DHT22;2548;52.050;11.036;2023-03-01T15:46:21;6.20;99.90
5059;DHT22;2548;52.050;11.036;2023-03-01T15:48:53;6.10;99.90
5059;DHT22;2548;52.050;11.036;2023-03-01T15:51:28;6.10;99.90
5059;DHT22;2548;52.050;11.036;2023-03-01T15:53:59;6.10;99.90
5059;DHT22;2548;52.050;11.036;2023-03-01T15:56:27;6.00;99.90
5059;DHT22;2548;52.050;11.036;2023-03-01T15:58:58;5.90;99.90
5059;DHT22;2548;52.050;11.036;2023-03-01T16:01:26;5.80;99.90
5059;DHT22;2548;52.050;11.036;2023-03-01T16:03:55;5.70;99.90
5059;DHT22;2548;52.050;11.036;2023-03-01T16:06:24;5.70;99.90
5059;DHT22;2548;52.050;11.036;2023-03-01T16:08:52;5.50;99.90
5059;DHT22;2548;52.050;11.036;2023-03-01T16:11:20;5.40;99.90
5059;DHT22;2548;52.050;11.036;2023-03-01T16:13:48;5.30;99.90
5059;DHT22;2548;52.050;11.036;2023-03-01T16:16:16;5.20;99.90
5059;DHT22;2548;52.050;11.036;2023-03-01T16:18:45;5.00;99.90
5059;DHT22;2548;52.050;11.036;2023-03-01T16:21:20;4.90;99.90
5059;DHT22;2548;52.050;11.036;2023-03-01T16:23:48;4.80;99.90
5059;DHT22;2548;52.050;11.036;2023-03-01T16:26:15;4.70;99.90
5059;DHT22;2548;52.050;11.036;2023-03-01T16:28:45;4.70;99.90
5059;DHT22;2548;52.050;11.036;2023-03-01T16:31:16;4.60;99.90
5059;DHT22;2548;52.050;11.036;2023-03-01T16:33:44;4.50;99.90